Terminal Aerodrome Forecast
Issued by NWS Binghamton, NY

Current Version | Previous Version | Text Only | Print | Product List | Glossary On
Versions: 1 2 3 4 5 6 7 8 9 10 11 12 13 14 15 16 17 18 19 20 21 22 23 24
000
FTUS41 KBGM 110900 AAB
TAFBGM
TAF AMD
KBGM 110900Z 1109/1206 00000KT P6SM SCT190
     FM111600 31007G14KT P6SM SCT040 PROB30 1119/1121 -SHRA OVC040
     FM112100 33008KT P6SM FEW050=

USA.gov is the U.S. government's official web portal to all federal, state and local government web resources and services.